Trang, Thailand

6:14 PM ICT on December 03, 2016 (GMT +0700)
Trang | | Change Station

Elev 52 ft 7.51 °N, 99.62 °E | Updated 14 minutes ago

Scattered Clouds
Scattered Clouds
75 °F
Feels Like 75 °F
N
5
Wind Variable Wind from NNW

Today
High -- | Low -- °F
--% Chance of Precip.
Yesterday
High -- | Low -- °F
Precip. -- in
Pressure 29.74 in
Visibility 5.6 miles
Clouds Few 1800 ft
Scattered Clouds 2500 ft
Dew Point 75 °F
Humidity 100%
Rainfall 0.00 in
Snow Depth Not available.
6:19 AM 6:02 PM
Waxing Crescent, 14% visible
METAR VTST 031100Z 33004KT 9000 FEW018 SCT025 24/24 Q1007 RWY08 INFO M
Pressure 29.74 in
Visibility 5.6 miles
Clouds Few 1800 ft
Scattered Clouds 2500 ft
Dew Point 75 °F
Humidity 100%
Rainfall 0.00 in
Snow Depth Not available.
6:19 AM 6:02 PM
Waxing Crescent, 14% visible
METAR VTST 031100Z 33004KT 9000 FEW018 SCT025 24/24 Q1007 RWY08 INFO M

10-Day Weather Forecast

No radar image for this location.
×

Almanac

Astronomy

Dec. 03, 2016 Rise Set
Actual Time
Civil Twilight
Nautical Twilight
Astronomical Twilight
Moon
Length of Visible Light
Length of Day
Tomorrow will be .
, % of the Moon is Illuminated

Today's Extremes

Country Highs Country Lows

Community

WunderPhotos

Upload Photos

1,955,434 photos uploaded!

WunderBlog® & News

Nearby

Air Quality

  Air Quality AQ Index Pollutant
Not available.

Snow Depth

Station Depth Elevation

Earthquake Activity

City Distance Mag. Time & Date
Minimum magnitude displayed is 2.5.

Coastal Water Temperatures

Place Temperature

Stations

Nearby Weather Stations

Station Location Temp. Windchill Dew Point Humidity Wind Precip. Elev Updated Type